sensor_id;sensor_type;location;lat;lon;timestamp;temperature;humidity
5138;DHT22;53959;53.626;11.410;2022-09-01T00:01:16;15.60;99.90
5138;DHT22;53959;53.626;11.410;2022-09-01T00:03:50;15.60;99.90
5138;DHT22;53959;53.626;11.410;2022-09-01T00:06:21;15.60;99.90
5138;DHT22;53959;53.626;11.410;2022-09-01T00:08:53;15.60;99.90
5138;DHT22;53959;53.626;11.410;2022-09-01T00:11:20;15.60;99.90
5138;DHT22;53959;53.626;11.410;2022-09-01T00:13:47;15.60;99.90
5138;DHT22;53959;53.626;11.410;2022-09-01T00:16:14;15.60;99.90
5138;DHT22;53959;53.626;11.410;2022-09-01T00:18:42;15.60;99.90
5138;DHT22;53959;53.626;11.410;2022-09-01T00:21:09;15.60;99.90
5138;DHT22;53959;53.626;11.410;2022-09-01T00:23:35;15.60;99.90
5138;DHT22;53959;53.626;11.410;2022-09-01T00:26:01;15.60;99.90
5138;DHT22;53959;53.626;11.410;2022-09-01T00:28:26;15.60;99.90
5138;DHT22;53959;53.626;11.410;2022-09-01T00:30:52;15.50;99.90
5138;DHT22;53959;53.626;11.410;2022-09-01T00:33:18;15.50;99.90
5138;DHT22;53959;53.626;11.410;2022-09-01T00:35:44;15.40;99.90
5138;DHT22;53959;53.626;11.410;2022-09-01T00:38:10;15.50;99.90
5138;DHT22;53959;53.626;11.410;2022-09-01T00:40:35;15.50;99.90
5138;DHT22;53959;53.626;11.410;2022-09-01T00:43:11;15.50;99.90
5138;DHT22;53959;53.626;11.410;2022-09-01T00:45:37;15.40;99.90
5138;DHT22;53959;53.626;11.410;2022-09-01T00:48:04;15.40;99.90
5138;DHT22;53959;53.626;11.410;2022-09-01T00:50:31;15.30;99.90
5138;DHT22;53959;53.626;11.410;2022-09-01T00:52:57;15.20;99.90
5138;DHT22;53959;53.626;11.410;2022-09-01T00:55:30;15.20;99.90
5138;DHT22;53959;53.626;11.410;2022-09-01T00:57:59;15.10;99.90
5138;DHT22;53959;53.626;11.410;2022-09-01T01:00:29;15.10;99.90
5138;DHT22;53959;53.626;11.410;2022-09-01T01:02:56;15.10;99.90
5138;DHT22;53959;53.626;11.410;2022-09-01T01:05:23;15.00;99.90
5138;DHT22;53959;53.626;11.410;2022-09-01T01:07:52;15.00;99.90
5138;DHT22;53959;53.626;11.410;2022-09-01T01:10:20;15.00;99.90
5138;DHT22;53959;53.626;11.410;2022-09-01T01:12:46;14.90;99.90
5138;DHT22;53959;53.626;11.410;2022-09-01T01:15:15;14.90;99.90
5138;DHT22;53959;53.626;11.410;2022-09-01T01:17:41;14.80;99.90
5138;DHT22;53959;53.626;11.410;2022-09-01T01:20:07;14.80;99.90
5138;DHT22;53959;53.626;11.410;2022-09-01T01:25:48;14.70;99.90
5138;DHT22;53959;53.626;11.410;2022-09-01T01:28:20;14.70;99.90
5138;DHT22;53959;53.626;11.410;2022-09-01T01:30:49;14.70;99.90
5138;DHT22;53959;53.626;11.410;2022-09-01T01:33:21;14.70;99.90
5138;DHT22;53959;53.626;11.410;2022-09-01T01:35:48;14.70;99.90
5138;DHT22;53959;53.626;11.410;2022-09-01T01:38:16;14.70;99.90
5138;DHT22;53959;53.626;11.410;2022-09-01T01:40:41;14.70;99.90
5138;DHT22;53959;53.626;11.410;2022-09-01T01:43:07;14.70;99.90
5138;DHT22;53959;53.626;11.410;2022-09-01T01:45:33;14.60;99.90
5138;DHT22;53959;53.626;11.410;2022-09-01T01:47:59;14.60;99.90
5138;DHT22;53959;53.626;11.410;2022-09-01T01:50:30;14.60;99.90
5138;DHT22;53959;53.626;11.410;2022-09-01T01:53:03;14.60;99.90
5138;DHT22;53959;53.626;11.410;2022-09-01T01:55:29;14.60;99.90
5138;DHT22;53959;53.626;11.410;2022-09-01T01:57:56;14.60;99.90
5138;DHT22;53959;53.626;11.410;2022-09-01T02:00:27;14.50;99.90
5138;DHT22;53959;53.626;11.410;2022-09-01T02:02:53;14.50;99.90
5138;DHT22;53959;53.626;11.410;2022-09-01T02:05:25;14.50;99.90
5138;DHT22;53959;53.626;11.410;2022-09-01T02:08:02;14.50;99.90
5138;DHT22;53959;53.626;11.410;2022-09-01T02:10:32;14.50;99.90
5138;DHT22;53959;53.626;11.410;2022-09-01T02:12:59;14.40;99.90
5138;DHT22;53959;53.626;11.410;2022-09-01T02:15:45;14.40;99.90
5138;DHT22;53959;53.626;11.410;2022-09-01T02:18:13;14.40;99.90
5138;DHT22;53959;53.626;11.410;2022-09-01T02:20:41;14.40;99.90
5138;DHT22;53959;53.626;11.410;2022-09-01T02:23:07;14.30;99.90
5138;DHT22;53959;53.626;11.410;2022-09-01T02:25:37;14.30;99.90
5138;DHT22;53959;53.626;11.410;2022-09-01T02:28:04;14.30;99.90
5138;DHT22;53959;53.626;11.410;2022-09-01T02:30:34;14.30;99.90
5138;DHT22;53959;53.626;11.410;2022-09-01T02:33:02;14.30;99.90
5138;DHT22;53959;53.626;11.410;2022-09-01T02:35:29;14.30;99.90
5138;DHT22;53959;53.626;11.410;2022-09-01T02:37:59;14.30;99.90
5138;DHT22;53959;53.626;11.410;2022-09-01T02:40:26;14.30;99.90
5138;DHT22;53959;53.626;11.410;2022-09-01T02:42:55;14.30;99.90
5138;DHT22;53959;53.626;11.410;2022-09-01T02:45:20;14.30;99.90
5138;DHT22;53959;53.626;11.410;2022-09-01T02:47:48;14.30;99.90
5138;DHT22;53959;53.626;11.410;2022-09-01T02:50:15;14.20;99.90
5138;DHT22;53959;53.626;11.410;2022-09-01T02:52:46;14.30;99.90
5138;DHT22;53959;53.626;11.410;2022-09-01T02:55:14;14.30;99.90
5138;DHT22;53959;53.626;11.410;2022-09-01T02:57:49;14.30;99.90
5138;DHT22;53959;53.626;11.410;2022-09-01T03:00:16;14.30;99.90
5138;DHT22;53959;53.626;11.410;2022-09-01T03:02:51;14.30;99.90
5138;DHT22;53959;53.626;11.410;2022-09-01T03:05:18;14.30;99.90
5138;DHT22;53959;53.626;11.410;2022-09-01T03:07:59;14.30;99.90
5138;DHT22;53959;53.626;11.410;2022-09-01T03:10:28;14.30;99.90
5138;DHT22;53959;53.626;11.410;2022-09-01T03:13:02;14.20;99.90
5138;DHT22;53959;53.626;11.410;2022-09-01T03:15:28;14.20;99.90
5138;DHT22;53959;53.626;11.410;2022-09-01T03:17:54;14.20;99.90
5138;DHT22;53959;53.626;11.410;2022-09-01T03:20:20;14.20;99.90
5138;DHT22;53959;53.626;11.410;2022-09-01T03:22:48;14.20;99.90
5138;DHT22;53959;53.626;11.410;2022-09-01T03:25:15;14.20;99.90
5138;DHT22;53959;53.626;11.410;2022-09-01T03:27:41;14.20;99.90
5138;DHT22;53959;53.626;11.410;2022-09-01T03:30:07;14.10;99.90
5138;DHT22;53959;53.626;11.410;2022-09-01T03:32:32;14.10;99.90
5138;DHT22;53959;53.626;11.410;2022-09-01T03:34:58;14.10;99.90
5138;DHT22;53959;53.626;11.410;2022-09-01T03:37:24;14.10;99.90
5138;DHT22;53959;53.626;11.410;2022-09-01T03:39:51;14.10;99.90
5138;DHT22;53959;53.626;11.410;2022-09-01T03:42:16;14.10;99.90
5138;DHT22;53959;53.626;11.410;2022-09-01T03:44:47;14.00;99.90
5138;DHT22;53959;53.626;11.410;2022-09-01T03:47:14;14.00;99.90
5138;DHT22;53959;53.626;11.410;2022-09-01T03:49:39;13.90;99.90
5138;DHT22;53959;53.626;11.410;2022-09-01T03:52:08;14.00;99.90
5138;DHT22;53959;53.626;11.410;2022-09-01T03:54:35;13.90;99.90
5138;DHT22;53959;53.626;11.410;2022-09-01T03:57:00;13.90;99.90
5138;DHT22;53959;53.626;11.410;2022-09-01T03:59:26;13.90;99.90
5138;DHT22;53959;53.626;11.410;2022-09-01T04:01:53;13.90;99.90
5138;DHT22;53959;53.626;11.410;2022-09-01T04:04:18;13.90;99.90
5138;DHT22;53959;53.626;11.410;2022-09-01T04:06:45;13.90;99.90
5138;DHT22;53959;53.626;11.410;2022-09-01T04:09:11;13.90;99.90
5138;DHT22;53959;53.626;11.410;2022-09-01T04:11:37;13.90;99.90
5138;DHT22;53959;53.626;11.410;2022-09-01T04:14:04;13.80;99.90
5138;DHT22;53959;53.626;11.410;2022-09-01T04:16:31;13.80;99.90
5138;DHT22;53959;53.626;11.410;2022-09-01T04:19:18;13.70;99.90
5138;DHT22;53959;53.626;11.410;2022-09-01T04:21:46;13.70;99.90
5138;DHT22;53959;53.626;11.410;2022-09-01T04:24:12;13.70;99.90
5138;DHT22;53959;53.626;11.410;2022-09-01T04:26:40;13.70;99.90
5138;DHT22;53959;53.626;11.410;2022-09-01T04:29:06;13.80;99.90
5138;DHT22;53959;53.626;11.410;2022-09-01T04:31:34;13.80;99.90
5138;DHT22;53959;53.626;11.410;2022-09-01T04:34:03;13.80;99.90
5138;DHT22;53959;53.626;11.410;2022-09-01T04:36:35;13.80;99.90
5138;DHT22;53959;53.626;11.410;2022-09-01T04:39:03;13.90;99.90
5138;DHT22;53959;53.626;11.410;2022-09-01T04:41:34;13.90;99.90
5138;DHT22;53959;53.626;11.410;2022-09-01T04:44:03;14.00;99.90
5138;DHT22;53959;53.626;11.410;2022-09-01T04:46:30;13.90;99.90
5138;DHT22;53959;53.626;11.410;2022-09-01T04:49:00;13.90;99.90
5138;DHT22;53959;53.626;11.410;2022-09-01T04:51:27;13.90;99.90
5138;DHT22;53959;53.626;11.410;2022-09-01T04:53:54;13.90;99.90
5138;DHT22;53959;53.626;11.410;2022-09-01T04:56:22;14.00;99.90
5138;DHT22;53959;53.626;11.410;2022-09-01T04:58:49;14.00;99.90
5138;DHT22;53959;53.626;11.410;2022-09-01T05:01:17;14.00;99.90
5138;DHT22;53959;53.626;11.410;2022-09-01T05:03:44;14.00;99.90
5138;DHT22;53959;53.626;11.410;2022-09-01T05:06:18;14.00;99.90
5138;DHT22;53959;53.626;11.410;2022-09-01T05:08:44;14.00;99.90
5138;DHT22;53959;53.626;11.410;2022-09-01T05:11:13;14.00;99.90
5138;DHT22;53959;53.626;11.410;2022-09-01T05:13:47;14.10;99.90
5138;DHT22;53959;53.626;11.410;2022-09-01T05:16:15;14.00;99.90
5138;DHT22;53959;53.626;11.410;2022-09-01T05:18:45;14.10;99.90
5138;DHT22;53959;53.626;11.410;2022-09-01T05:21:13;14.10;99.90
5138;DHT22;53959;53.626;11.410;2022-09-01T05:23:41;14.10;99.90
5138;DHT22;53959;53.626;11.410;2022-09-01T05:26:22;14.10;99.90
5138;DHT22;53959;53.626;11.410;2022-09-01T05:28:51;14.20;99.90
5138;DHT22;53959;53.626;11.410;2022-09-01T05:31:19;14.20;99.90
5138;DHT22;53959;53.626;11.410;2022-09-01T05:33:46;14.30;99.90
5138;DHT22;53959;53.626;11.410;2022-09-01T05:36:14;14.30;99.90
5138;DHT22;53959;53.626;11.410;2022-09-01T05:38:40;14.30;99.90
5138;DHT22;53959;53.626;11.410;2022-09-01T05:41:07;14.30;99.90
5138;DHT22;53959;53.626;11.410;2022-09-01T05:43:34;14.40;99.90
5138;DHT22;53959;53.626;11.410;2022-09-01T05:46:00;14.50;99.90
5138;DHT22;53959;53.626;11.410;2022-09-01T05:48:28;14.50;99.90
5138;DHT22;53959;53.626;11.410;2022-09-01T05:50:56;14.60;99.90
5138;DHT22;53959;53.626;11.410;2022-09-01T05:53:25;14.70;99.90
5138;DHT22;53959;53.626;11.410;2022-09-01T05:55:51;14.80;99.90
5138;DHT22;53959;53.626;11.410;2022-09-01T05:58:26;14.80;99.90
5138;DHT22;53959;53.626;11.410;2022-09-01T06:00:53;14.80;99.90
5138;DHT22;53959;53.626;11.410;2022-09-01T06:03:21;14.80;99.90
5138;DHT22;53959;53.626;11.410;2022-09-01T06:05:47;14.90;99.90
5138;DHT22;53959;53.626;11.410;2022-09-01T06:08:18;15.00;99.90
5138;DHT22;53959;53.626;11.410;2022-09-01T06:10:44;15.00;99.90
5138;DHT22;53959;53.626;11.410;2022-09-01T06:13:10;15.10;99.90
5138;DHT22;53959;53.626;11.410;2022-09-01T06:15:36;15.20;99.90
5138;DHT22;53959;53.626;11.410;2022-09-01T06:18:10;15.30;99.90
5138;DHT22;53959;53.626;11.410;2022-09-01T06:20:43;15.40;99.90
5138;DHT22;53959;53.626;11.410;2022-09-01T06:23:09;15.40;99.90
5138;DHT22;53959;53.626;11.410;2022-09-01T06:25:48;15.40;99.90
5138;DHT22;53959;53.626;11.410;2022-09-01T06:28:17;15.60;99.90
5138;DHT22;53959;53.626;11.410;2022-09-01T06:30:45;15.60;99.90
5138;DHT22;53959;53.626;11.410;2022-09-01T06:33:13;15.80;99.90
5138;DHT22;53959;53.626;11.410;2022-09-01T06:35:40;15.80;99.90
5138;DHT22;53959;53.626;11.410;2022-09-01T06:38:10;15.90;99.90
5138;DHT22;53959;53.626;11.410;2022-09-01T06:40:36;16.00;99.90
5138;DHT22;53959;53.626;11.410;2022-09-01T06:43:04;16.00;99.90
5138;DHT22;53959;53.626;11.410;2022-09-01T06:45:39;16.10;99.90
5138;DHT22;53959;53.626;11.410;2022-09-01T06:48:06;16.20;99.90
5138;DHT22;53959;53.626;11.410;2022-09-01T06:50:32;16.20;99.90
5138;DHT22;53959;53.626;11.410;2022-09-01T06:52:58;16.30;99.90
5138;DHT22;53959;53.626;11.410;2022-09-01T06:55:36;16.40;99.90
5138;DHT22;53959;53.626;11.410;2022-09-01T06:58:03;16.50;99.90
5138;DHT22;53959;53.626;11.410;2022-09-01T07:00:29;16.60;99.90
5138;DHT22;53959;53.626;11.410;2022-09-01T07:02:56;16.60;99.90
5138;DHT22;53959;53.626;11.410;2022-09-01T07:05:23;16.70;95.50
5138;DHT22;53959;53.626;11.410;2022-09-01T07:07:50;16.80;1.00
5138;DHT22;53959;53.626;11.410;2022-09-01T07:10:17;16.70;99.90
5138;DHT22;53959;53.626;11.410;2022-09-01T07:12:50;16.70;1.00
5138;DHT22;53959;53.626;11.410;2022-09-01T07:15:16;16.70;1.00
5138;DHT22;53959;53.626;11.410;2022-09-01T07:17:47;16.90;1.00
5138;DHT22;53959;53.626;11.410;2022-09-01T07:20:14;17.00;99.90
5138;DHT22;53959;53.626;11.410;2022-09-01T07:22:41;17.20;99.90
5138;DHT22;53959;53.626;11.410;2022-09-01T07:25:07;17.40;99.90
5138;DHT22;53959;53.626;11.410;2022-09-01T07:27:36;17.40;1.00
5138;DHT22;53959;53.626;11.410;2022-09-01T07:30:03;17.30;99.90
5138;DHT22;53959;53.626;11.410;2022-09-01T07:32:34;17.60;99.90
5138;DHT22;53959;53.626;11.410;2022-09-01T07:35:03;17.70;99.90
5138;DHT22;53959;53.626;11.410;2022-09-01T07:37:30;17.90;1.00
5138;DHT22;53959;53.626;11.410;2022-09-01T07:39:56;18.10;71.30
5138;DHT22;53959;53.626;11.410;2022-09-01T07:42:22;17.90;1.00
5138;DHT22;53959;53.626;11.410;2022-09-01T07:44:48;18.30;99.90
5138;DHT22;53959;53.626;11.410;2022-09-01T07:47:14;18.40;1.00
5138;DHT22;53959;53.626;11.410;2022-09-01T07:49:41;18.50;1.00
5138;DHT22;53959;53.626;11.410;2022-09-01T07:52:07;18.60;99.90
5138;DHT22;53959;53.626;11.410;2022-09-01T07:54:32;18.90;99.90
5138;DHT22;53959;53.626;11.410;2022-09-01T07:56:59;19.60;99.90
5138;DHT22;53959;53.626;11.410;2022-09-01T07:59:26;20.30;4.90
5138;DHT22;53959;53.626;11.410;2022-09-01T08:01:52;20.40;1.00
5138;DHT22;53959;53.626;11.410;2022-09-01T08:04:17;19.80;99.90
5138;DHT22;53959;53.626;11.410;2022-09-01T08:06:47;20.30;99.90
5138;DHT22;53959;53.626;11.410;2022-09-01T08:09:13;20.70;99.90
5138;DHT22;53959;53.626;11.410;2022-09-01T08:11:38;21.20;99.90
5138;DHT22;53959;53.626;11.410;2022-09-01T08:14:04;21.60;99.90
5138;DHT22;53959;53.626;11.410;2022-09-01T08:16:30;21.80;99.90
5138;DHT22;53959;53.626;11.410;2022-09-01T08:18:56;21.80;99.90
5138;DHT22;53959;53.626;11.410;2022-09-01T08:21:23;22.40;99.90
5138;DHT22;53959;53.626;11.410;2022-09-01T08:23:51;21.90;99.90
5138;DHT22;53959;53.626;11.410;2022-09-01T08:26:19;22.10;98.40
5138;DHT22;53959;53.626;11.410;2022-09-01T08:28:45;22.90;84.30
5138;DHT22;53959;53.626;11.410;2022-09-01T08:31:14;23.00;40.30
5138;DHT22;53959;53.626;11.410;2022-09-01T08:33:42;22.70;6.50
5138;DHT22;53959;53.626;11.410;2022-09-01T08:36:10;21.80;1.00
5138;DHT22;53959;53.626;11.410;2022-09-01T08:38:36;21.50;29.80
5138;DHT22;53959;53.626;11.410;2022-09-01T08:41:05;22.30;34.90
5138;DHT22;53959;53.626;11.410;2022-09-01T08:43:58;22.70;50.90
5138;DHT22;53959;53.626;11.410;2022-09-01T08:46:32;22.80;14.00
5138;DHT22;53959;53.626;11.410;2022-09-01T08:49:19;22.60;7.10
5138;DHT22;53959;53.626;11.410;2022-09-01T08:57:38;22.60;1.00
5138;DHT22;53959;53.626;11.410;2022-09-01T09:00:07;22.30;1.00
5138;DHT22;53959;53.626;11.410;2022-09-01T09:02:52;22.20;1.00
5138;DHT22;53959;53.626;11.410;2022-09-01T09:05:28;22.30;1.00
5138;DHT22;53959;53.626;11.410;2022-09-01T09:10:31;22.30;1.00
5138;DHT22;53959;53.626;11.410;2022-09-01T09:13:11;21.80;1.00
5138;DHT22;53959;53.626;11.410;2022-09-01T09:15:57;21.10;1.00
5138;DHT22;53959;53.626;11.410;2022-09-01T09:18:39;21.10;1.00
5138;DHT22;53959;53.626;11.410;2022-09-01T09:21:28;20.80;1.00
5138;DHT22;53959;53.626;11.410;2022-09-01T09:26:31;20.30;1.00
5138;DHT22;53959;53.626;11.410;2022-09-01T09:28:57;20.20;1.00
5138;DHT22;53959;53.626;11.410;2022-09-01T09:31:36;20.20;1.00
5138;DHT22;53959;53.626;11.410;2022-09-01T09:34:38;20.30;1.00
5138;DHT22;53959;53.626;11.410;2022-09-01T09:37:30;20.50;1.00
5138;DHT22;53959;53.626;11.410;2022-09-01T09:42:33;20.30;1.00
5138;DHT22;53959;53.626;11.410;2022-09-01T09:44:59;20.70;1.00
5138;DHT22;53959;53.626;11.410;2022-09-01T09:47:44;20.50;1.00
5138;DHT22;53959;53.626;11.410;2022-09-01T09:50:19;20.60;1.00
5138;DHT22;53959;53.626;11.410;2022-09-01T09:52:48;21.10;1.00
5138;DHT22;53959;53.626;11.410;2022-09-01T09:57:50;21.20;1.00
5138;DHT22;53959;53.626;11.410;2022-09-01T10:00:21;21.10;1.00
5138;DHT22;53959;53.626;11.410;2022-09-01T10:02:55;20.80;1.00
5138;DHT22;53959;53.626;11.410;2022-09-01T10:05:34;20.60;1.00
5138;DHT22;53959;53.626;11.410;2022-09-01T10:08:01;20.70;1.00
5138;DHT22;53959;53.626;11.410;2022-09-01T10:10:40;20.80;1.00
5138;DHT22;53959;53.626;11.410;2022-09-01T10:13:15;20.80;1.00
5138;DHT22;53959;53.626;11.410;2022-09-01T10:15:48;20.80;1.00
5138;DHT22;53959;53.626;11.410;2022-09-01T10:18:17;20.90;1.00
5138;DHT22;53959;53.626;11.410;2022-09-01T10:20:52;20.80;1.00
5138;DHT22;53959;53.626;11.410;2022-09-01T10:23:19;20.50;1.00
5138;DHT22;53959;53.626;11.410;2022-09-01T10:25:47;20.60;1.00
5138;DHT22;53959;53.626;11.410;2022-09-01T10:28:17;20.60;1.00
5138;DHT22;53959;53.626;11.410;2022-09-01T10:30:46;20.30;1.00
5138;DHT22;53959;53.626;11.410;2022-09-01T10:33:15;20.40;1.00
5138;DHT22;53959;53.626;11.410;2022-09-01T10:35:44;20.30;1.00
5138;DHT22;53959;53.626;11.410;2022-09-01T10:38:24;20.20;1.00
5138;DHT22;53959;53.626;11.410;2022-09-01T10:40:52;20.20;1.00
5138;DHT22;53959;53.626;11.410;2022-09-01T10:43:33;20.10;52.10
5138;DHT22;53959;53.626;11.410;2022-09-01T10:46:07;20.00;99.90
5138;DHT22;53959;53.626;11.410;2022-09-01T10:48:33;19.90;99.90
5138;DHT22;53959;53.626;11.410;2022-09-01T10:53:41;20.00;99.90
5138;DHT22;53959;53.626;11.410;2022-09-01T10:56:41;20.00;99.90
5138;DHT22;53959;53.626;11.410;2022-09-01T11:07:01;20.00;99.90
5138;DHT22;53959;53.626;11.410;2022-09-01T11:12:24;20.00;99.90
5138;DHT22;53959;53.626;11.410;2022-09-01T11:17:35;20.10;99.90
5138;DHT22;53959;53.626;11.410;2022-09-01T11:22:41;20.30;99.90
5138;DHT22;53959;53.626;11.410;2022-09-01T11:25:36;20.20;99.90
5138;DHT22;53959;53.626;11.410;2022-09-01T11:32:58;20.10;95.80
5138;DHT22;53959;53.626;11.410;2022-09-01T11:35:28;20.10;1.00
5138;DHT22;53959;53.626;11.410;2022-09-01T11:38:01;20.40;7.20
5138;DHT22;53959;53.626;11.410;2022-09-01T11:40:31;20.60;1.00
5138;DHT22;53959;53.626;11.410;2022-09-01T11:42:58;20.20;1.00
5138;DHT22;53959;53.626;11.410;2022-09-01T11:45:28;20.40;1.00
5138;DHT22;53959;53.626;11.410;2022-09-01T11:48:08;20.70;1.00
5138;DHT22;53959;53.626;11.410;2022-09-01T11:50:36;21.00;1.00
5138;DHT22;53959;53.626;11.410;2022-09-01T11:53:14;21.10;1.00
5138;DHT22;53959;53.626;11.410;2022-09-01T11:55:48;21.00;1.00
5138;DHT22;53959;53.626;11.410;2022-09-01T11:58:34;20.90;1.00
5138;DHT22;53959;53.626;11.410;2022-09-01T12:03:55;20.60;1.00
5138;DHT22;53959;53.626;11.410;2022-09-01T12:06:25;20.50;1.00
5138;DHT22;53959;53.626;11.410;2022-09-01T12:08:55;20.30;1.00
5138;DHT22;53959;53.626;11.410;2022-09-01T12:11:24;20.20;1.00
5138;DHT22;53959;53.626;11.410;2022-09-01T12:16:21;20.00;1.00
5138;DHT22;53959;53.626;11.410;2022-09-01T12:18:52;20.00;1.00
5138;DHT22;53959;53.626;11.410;2022-09-01T12:23:46;20.10;1.00
5138;DHT22;53959;53.626;11.410;2022-09-01T12:26:18;20.20;1.00
5138;DHT22;53959;53.626;11.410;2022-09-01T12:28:45;20.20;1.00
5138;DHT22;53959;53.626;11.410;2022-09-01T12:31:19;20.10;1.00
5138;DHT22;53959;53.626;11.410;2022-09-01T12:33:46;20.30;1.00
5138;DHT22;53959;53.626;11.410;2022-09-01T12:36:21;20.50;1.00
5138;DHT22;53959;53.626;11.410;2022-09-01T12:38:48;20.60;1.00
5138;DHT22;53959;53.626;11.410;2022-09-01T12:41:36;20.70;1.00
5138;DHT22;53959;53.626;11.410;2022-09-01T12:44:31;21.10;1.00
5138;DHT22;53959;53.626;11.410;2022-09-01T12:47:02;21.40;1.00
5138;DHT22;53959;53.626;11.410;2022-09-01T12:49:40;21.40;1.00
5138;DHT22;53959;53.626;11.410;2022-09-01T12:54:38;21.30;1.00
5138;DHT22;53959;53.626;11.410;2022-09-01T12:57:04;21.70;1.00
5138;DHT22;53959;53.626;11.410;2022-09-01T12:59:30;21.60;1.00
5138;DHT22;53959;53.626;11.410;2022-09-01T13:01:56;21.50;1.00
5138;DHT22;53959;53.626;11.410;2022-09-01T13:04:25;22.00;1.00
5138;DHT22;53959;53.626;11.410;2022-09-01T13:06:58;22.20;1.00
5138;DHT22;53959;53.626;11.410;2022-09-01T13:09:24;22.60;1.00
5138;DHT22;53959;53.626;11.410;2022-09-01T13:11:50;22.90;1.00
5138;DHT22;53959;53.626;11.410;2022-09-01T13:14:15;23.30;1.00
5138;DHT22;53959;53.626;11.410;2022-09-01T13:16:42;22.40;1.00
5138;DHT22;53959;53.626;11.410;2022-09-01T13:19:07;22.40;1.00
5138;DHT22;53959;53.626;11.410;2022-09-01T13:21:34;22.40;1.00
5138;DHT22;53959;53.626;11.410;2022-09-01T13:24:02;21.90;1.00
5138;DHT22;53959;53.626;11.410;2022-09-01T13:26:29;22.10;1.00
5138;DHT22;53959;53.626;11.410;2022-09-01T13:28:58;22.10;1.00
5138;DHT22;53959;53.626;11.410;2022-09-01T13:31:24;22.20;1.00
5138;DHT22;53959;53.626;11.410;2022-09-01T13:33:50;21.70;1.00
5138;DHT22;53959;53.626;11.410;2022-09-01T13:36:16;21.70;1.00
5138;DHT22;53959;53.626;11.410;2022-09-01T13:38:42;21.60;1.00
5138;DHT22;53959;53.626;11.410;2022-09-01T13:41:07;21.70;1.00
5138;DHT22;53959;53.626;11.410;2022-09-01T13:43:35;22.00;1.00
5138;DHT22;53959;53.626;11.410;2022-09-01T13:46:01;21.80;1.00
5138;DHT22;53959;53.626;11.410;2022-09-01T13:48:26;21.70;1.00
5138;DHT22;53959;53.626;11.410;2022-09-01T13:50:53;22.00;1.00
5138;DHT22;53959;53.626;11.410;2022-09-01T13:53:20;21.70;1.00
5138;DHT22;53959;53.626;11.410;2022-09-01T13:55:46;21.50;1.00
5138;DHT22;53959;53.626;11.410;2022-09-01T13:58:12;21.80;1.00
5138;DHT22;53959;53.626;11.410;2022-09-01T14:00:42;22.00;1.00
5138;DHT22;53959;53.626;11.410;2022-09-01T14:03:15;22.20;1.00
5138;DHT22;53959;53.626;11.410;2022-09-01T14:05:43;21.90;1.00
5138;DHT22;53959;53.626;11.410;2022-09-01T14:08:11;22.00;1.00
5138;DHT22;53959;53.626;11.410;2022-09-01T14:10:41;22.10;1.00
5138;DHT22;53959;53.626;11.410;2022-09-01T14:13:08;22.10;1.00
5138;DHT22;53959;53.626;11.410;2022-09-01T14:15:34;22.00;1.00
5138;DHT22;53959;53.626;11.410;2022-09-01T14:18:01;22.00;1.00
5138;DHT22;53959;53.626;11.410;2022-09-01T14:20:30;21.90;1.00
5138;DHT22;53959;53.626;11.410;2022-09-01T14:22:56;21.90;1.00
5138;DHT22;53959;53.626;11.410;2022-09-01T14:25:22;21.60;1.00
5138;DHT22;53959;53.626;11.410;2022-09-01T14:27:48;21.60;1.00
5138;DHT22;53959;53.626;11.410;2022-09-01T14:30:23;21.80;1.00
5138;DHT22;53959;53.626;11.410;2022-09-01T14:32:49;21.60;1.00
5138;DHT22;53959;53.626;11.410;2022-09-01T14:35:16;21.60;1.00
5138;DHT22;53959;53.626;11.410;2022-09-01T14:37:42;21.50;1.00
5138;DHT22;53959;53.626;11.410;2022-09-01T14:40:10;21.30;1.00
5138;DHT22;53959;53.626;11.410;2022-09-01T14:42:40;21.20;1.00
5138;DHT22;53959;53.626;11.410;2022-09-01T14:45:09;21.40;1.00
5138;DHT22;53959;53.626;11.410;2022-09-01T14:47:36;21.30;1.00
5138;DHT22;53959;53.626;11.410;2022-09-01T14:50:02;21.40;1.00
5138;DHT22;53959;53.626;11.410;2022-09-01T14:52:28;21.50;1.00
5138;DHT22;53959;53.626;11.410;2022-09-01T14:54:55;21.30;99.90
5138;DHT22;53959;53.626;11.410;2022-09-01T14:57:20;21.70;1.00
5138;DHT22;53959;53.626;11.410;2022-09-01T14:59:46;21.70;99.90
5138;DHT22;53959;53.626;11.410;2022-09-01T15:02:12;21.60;99.90
5138;DHT22;53959;53.626;11.410;2022-09-01T15:04:38;21.10;99.90
5138;DHT22;53959;53.626;11.410;2022-09-01T15:07:04;21.20;1.00
5138;DHT22;53959;53.626;11.410;2022-09-01T15:09:31;21.30;1.00
5138;DHT22;53959;53.626;11.410;2022-09-01T15:11:57;21.20;99.90
5138;DHT22;53959;53.626;11.410;2022-09-01T15:14:22;21.20;1.00
5138;DHT22;53959;53.626;11.410;2022-09-01T15:16:48;21.00;1.00
5138;DHT22;53959;53.626;11.410;2022-09-01T15:19:14;21.40;1.00
5138;DHT22;53959;53.626;11.410;2022-09-01T15:21:41;21.40;1.00
5138;DHT22;53959;53.626;11.410;2022-09-01T15:24:08;21.10;1.00
5138;DHT22;53959;53.626;11.410;2022-09-01T15:26:35;20.90;1.00
5138;DHT22;53959;53.626;11.410;2022-09-01T15:29:03;21.00;1.00
5138;DHT22;53959;53.626;11.410;2022-09-01T15:31:29;21.10;1.00
5138;DHT22;53959;53.626;11.410;2022-09-01T15:33:58;21.00;1.00
5138;DHT22;53959;53.626;11.410;2022-09-01T15:36:26;20.90;1.00
5138;DHT22;53959;53.626;11.410;2022-09-01T15:38:53;20.90;1.00
5138;DHT22;53959;53.626;11.410;2022-09-01T15:41:28;21.20;1.00
5138;DHT22;53959;53.626;11.410;2022-09-01T15:43:55;20.80;1.00
5138;DHT22;53959;53.626;11.410;2022-09-01T15:46:21;20.70;1.00
5138;DHT22;53959;53.626;11.410;2022-09-01T15:48:47;21.10;1.00
5138;DHT22;53959;53.626;11.410;2022-09-01T15:54:02;21.00;1.00
5138;DHT22;53959;53.626;11.410;2022-09-01T15:56:28;21.00;1.00
5138;DHT22;53959;53.626;11.410;2022-09-01T15:58:55;21.00;1.00
5138;DHT22;53959;53.626;11.410;2022-09-01T16:01:23;20.70;1.00
5138;DHT22;53959;53.626;11.410;2022-09-01T16:03:49;20.80;1.00
5138;DHT22;53959;53.626;11.410;2022-09-01T16:06:14;20.60;1.00
5138;DHT22;53959;53.626;11.410;2022-09-01T16:08:40;20.50;1.00
5138;DHT22;53959;53.626;11.410;2022-09-01T16:11:07;20.40;1.00
5138;DHT22;53959;53.626;11.410;2022-09-01T16:13:39;20.30;1.00
5138;DHT22;53959;53.626;11.410;2022-09-01T16:16:16;20.20;1.00
5138;DHT22;53959;53.626;11.410;2022-09-01T16:18:50;20.30;1.00
5138;DHT22;53959;53.626;11.410;2022-09-01T16:21:32;20.40;1.00
5138;DHT22;53959;53.626;11.410;2022-09-01T16:24:06;20.40;1.00
5138;DHT22;53959;53.626;11.410;2022-09-01T16:26:35;20.40;1.00
5138;DHT22;53959;53.626;11.410;2022-09-01T16:29:02;20.30;1.00
5138;DHT22;53959;53.626;11.410;2022-09-01T16:31:32;20.40;1.00
5138;DHT22;53959;53.626;11.410;2022-09-01T16:34:00;20.30;1.00
5138;DHT22;53959;53.626;11.410;2022-09-01T16:36:36;20.30;1.00
5138;DHT22;53959;53.626;11.410;2022-09-01T16:39:22;20.30;1.00
5138;DHT22;53959;53.626;11.410;2022-09-01T16:42:03;20.20;1.00
5138;DHT22;53959;53.626;11.410;2022-09-01T16:55:54;20.10;1.00
5138;DHT22;53959;53.626;11.410;2022-09-01T16:58:38;19.90;1.00